Time;durP1;ratioP1;P1;durP2;ratioP2;P2;SDS_P1;SDS_P2;PMS_P1;PMS_P2;Temp;Humidity;BMP_temperature;BMP_pressure;BME280_temperature;BME280_humidity;BME280_pressure;Samples;Min_cycle;Max_cycle;Signal;HPM_P1;HPM_P2
2021/06/03 00:36:21;;;;;;;5.23;4.73;;;19.60;95.40;;;;;;3233061;23;20485;-49
2021/06/03 00:38:48;;;;;;;4.77;4.37;;;19.60;95.20;;;;;;4994645;28;20484;-49
2021/06/03 00:41:15;;;;;;;5.07;4.67;;;19.50;94.90;;;;;;4993876;28;20508;-48
2021/06/03 00:43:42;;;;;;;6.70;4.43;;;19.50;95.70;;;;;;4993850;28;20917;-48
2021/06/03 00:46:09;;;;;;;4.20;3.90;;;19.50;95.50;;;;;;5000180;28;20471;-48
2021/06/03 00:48:39;;;;;;;5.20;4.80;;;19.50;94.60;;;;;;4999736;28;20472;-50
2021/06/03 00:51:08;;;;;;;5.30;4.80;;;19.50;95.00;;;;;;4994058;28;20507;-50
2021/06/03 00:53:39;;;;;;;5.00;4.50;;;19.50;97.00;;;;;;4994311;28;20645;-54
2021/06/03 00:56:06;;;;;;;5.07;4.63;;;19.40;99.00;;;;;;4999745;28;20469;-51
2021/06/03 00:58:38;;;;;;;6.00;5.37;;;19.30;97.70;;;;;;5000009;28;20477;-52
2021/06/03 01:01:05;;;;;;;7.70;4.37;;;19.30;97.50;;;;;;5000435;28;20507;-46
2021/06/03 01:03:36;;;;;;;5.07;4.67;;;19.20;98.60;;;;;;5000167;28;20596;-47
2021/06/03 01:06:05;;;;;;;5.10;4.70;;;19.20;98.70;;;;;;4990482;28;20492;-45
2021/06/03 01:08:35;;;;;;;4.77;4.47;;;19.20;98.00;;;;;;4998381;28;20460;-46
2021/06/03 01:11:09;;;;;;;4.87;4.57;;;19.20;98.90;;;;;;4999288;28;20467;-46
2021/06/03 01:13:43;;;;;;;5.10;4.40;;;19.10;99.90;;;;;;4999985;28;20776;-46
2021/06/03 01:16:29;;;;;;;5.37;4.40;;;19.10;99.90;;;;;;4998679;28;20497;-46
2021/06/03 01:18:57;;;;;;;7.77;5.87;;;19.00;99.90;;;;;;4993877;28;20476;-46
2021/06/03 01:21:29;;;;;;;5.07;4.57;;;18.90;99.90;;;;;;4999169;28;20803;-47
2021/06/03 01:24:14;;;;;;;4.97;4.57;;;18.90;99.90;;;;;;4999463;28;20465;-45
2021/06/03 01:26:41;;;;;;;4.97;4.63;;;18.90;99.90;;;;;;4999276;28;20473;-46
2021/06/03 01:29:08;;;;;;;4.60;4.20;;;18.90;99.90;;;;;;4998646;28;20535;-45
2021/06/03 01:31:34;;;;;;;5.07;4.67;;;18.70;99.90;;;;;;4998750;28;20575;-49
2021/06/03 01:34:02;;;;;;;5.17;4.77;;;18.70;99.90;;;;;;4999148;28;20604;-46
2021/06/03 01:36:29;;;;;;;5.23;4.77;;;18.60;99.90;;;;;;4998839;28;20497;-45
2021/06/03 01:38:56;;;;;;;5.60;5.20;;;18.50;99.90;;;;;;4999268;28;20476;-45
2021/06/03 01:41:24;;;;;;;4.40;4.00;;;18.50;99.90;;;;;;4998524;28;20527;-45
2021/06/03 01:43:52;;;;;;;6.20;5.13;;;18.60;99.90;;;;;;4999339;28;20468;-46
2021/06/03 01:46:19;;;;;;;5.90;5.37;;;18.70;99.90;;;;;;4998659;28;20472;-49
2021/06/03 01:48:45;;;;;;;5.70;5.20;;;18.60;99.90;;;;;;4998985;28;20469;-45
2021/06/03 01:51:13;;;;;;;5.73;5.20;;;18.60;99.90;;;;;;4998851;28;20464;-45
2021/06/03 01:53:41;;;;;;;5.20;4.70;;;18.50;99.90;;;;;;4999234;28;20495;-45
2021/06/03 01:56:10;;;;;;;5.50;4.77;;;18.40;99.90;;;;;;4999111;28;20882;-45
2021/06/03 01:58:39;;;;;;;5.47;5.07;;;18.40;99.90;;;;;;4998950;28;20907;-49
2021/06/03 02:01:07;;;;;;;5.03;4.63;;;18.40;99.90;;;;;;4997356;28;20511;-51
2021/06/03 02:03:33;;;;;;;5.10;4.70;;;18.40;99.90;;;;;;4992614;28;20890;-51
2021/06/03 02:06:00;;;;;;;8.17;4.50;;;18.40;99.90;;;;;;4995227;28;20476;-50
2021/06/03 02:08:27;;;;;;;6.70;5.77;;;18.40;99.90;;;;;;4998361;28;20465;-46
2021/06/03 02:10:54;;;;;;;4.93;4.63;;;18.30;99.90;;;;;;4992324;28;20912;-45
2021/06/03 02:13:25;;;;;;;5.50;5.10;;;18.30;99.90;;;;;;4992325;28;20469;-45
2021/06/03 02:16:00;;;;;;;6.33;5.47;;;18.30;99.90;;;;;;4998268;28;20484;-47
2021/06/03 02:18:40;;;;;;;4.63;4.27;;;18.30;99.90;;;;;;4998576;28;20742;-45
2021/06/03 02:21:08;;;;;;;5.63;5.23;;;18.20;99.90;;;;;;4998110;28;20492;-46
2021/06/03 02:23:35;;;;;;;5.03;4.63;;;18.10;99.90;;;;;;4998851;28;20500;-46
2021/06/03 02:26:03;;;;;;;5.83;5.13;;;18.10;99.90;;;;;;4998364;28;20469;-46
2021/06/03 02:28:33;;;;;;;5.00;4.50;;;18.00;99.90;;;;;;4998403;28;20472;-45
2021/06/03 02:31:02;;;;;;;5.20;4.90;;;18.00;99.90;;;;;;4996924;28;21002;-46
2021/06/03 02:33:30;;;;;;;6.47;4.50;;;18.10;99.90;;;;;;4998529;28;20476;-45
2021/06/03 02:35:57;;;;;;;5.60;4.70;;;18.10;99.90;;;;;;4998155;28;20800;-45
2021/06/03 02:38:25;;;;;;;5.30;4.90;;;18.10;99.90;;;;;;4998285;28;20464;-46
2021/06/03 02:40:52;;;;;;;5.13;4.73;;;18.10;99.90;;;;;;4997888;28;20509;-48
2021/06/03 02:43:19;;;;;;;5.70;4.57;;;18.10;99.90;;;;;;4997914;28;20928;-47
2021/06/03 02:45:46;;;;;;;4.53;4.23;;;18.10;99.90;;;;;;4997776;28;20469;-45
2021/06/03 02:48:15;;;;;;;4.80;4.40;;;18.10;99.90;;;;;;4997867;28;20535;-51
2021/06/03 02:50:45;;;;;;;5.90;5.37;;;18.00;99.90;;;;;;4997811;28;20465;-51
2021/06/03 02:53:12;;;;;;;6.00;4.47;;;18.00;99.90;;;;;;4998249;28;20477;-52
2021/06/03 02:55:39;;;;;;;4.97;4.57;;;18.00;99.90;;;;;;4998162;28;20476;-47
2021/06/03 02:58:05;;;;;;;5.87;5.37;;;17.90;99.90;;;;;;4997507;28;20742;-52
2021/06/03 03:00:36;;;;;;;5.80;5.20;;;17.90;99.90;;;;;;4997707;28;20503;-47
2021/06/03 03:03:05;;;;;;;7.43;5.00;;;17.90;99.90;;;;;;4991671;28;20476;-50
2021/06/03 03:05:34;;;;;;;5.00;4.60;;;17.80;99.90;;;;;;4995161;28;20477;-45
2021/06/03 03:08:00;;;;;;;4.57;4.27;;;17.80;99.90;;;;;;4997142;28;20996;-45
2021/06/03 03:10:33;;;;;;;4.60;4.20;;;17.80;99.90;;;;;;4997598;28;20630;-46
2021/06/03 03:13:00;;;;;;;4.50;4.10;;;17.70;99.90;;;;;;4997432;28;20519;-46
2021/06/03 03:15:27;;;;;;;4.90;4.60;;;17.80;99.90;;;;;;4998123;28;20461;-45
2021/06/03 03:17:54;;;;;;;4.47;4.17;;;17.80;99.90;;;;;;5004963;28;20767;-45
2021/06/03 03:20:22;;;;;;;4.43;4.03;;;17.80;99.90;;;;;;4998088;28;20493;-45
2021/06/03 03:22:50;;;;;;;5.27;4.77;;;17.80;99.90;;;;;;4994763;28;20476;-46
2021/06/03 03:25:18;;;;;;;4.73;4.33;;;17.80;99.90;;;;;;4995344;28;20464;-46
2021/06/03 03:27:46;;;;;;;4.47;4.10;;;17.80;99.90;;;;;;4997741;28;20473;-45
2021/06/03 03:30:14;;;;;;;4.33;4.03;;;17.80;99.90;;;;;;4996446;28;20889;-45
2021/06/03 03:32:41;;;;;;;6.80;4.80;;;17.80;99.90;;;;;;4996193;28;20495;-47
2021/06/03 03:35:09;;;;;;;7.10;5.00;;;17.70;99.90;;;;;;4995339;28;20460;-52
2021/06/03 03:37:37;;;;;;;5.63;5.23;;;17.70;99.90;;;;;;5000670;28;20485;-45
2021/06/03 03:40:08;;;;;;;4.90;4.40;;;17.70;99.90;;;;;;5003775;28;20602;-49
2021/06/03 03:42:35;;;;;;;5.10;4.50;;;17.60;99.90;;;;;;5017396;28;20916;-49
2021/06/03 03:45:01;;;;;;;4.20;3.90;;;17.60;99.90;;;;;;5015706;28;20514;-46
2021/06/03 03:47:28;;;;;;;4.80;4.50;;;17.60;99.90;;;;;;5016238;28;20888;-51
2021/06/03 03:49:55;;;;;;;4.70;4.40;;;17.70;99.90;;;;;;5011165;28;20469;-55
2021/06/03 03:52:21;;;;;;;5.03;4.63;;;17.70;99.90;;;;;;5015062;28;20518;-51
2021/06/03 03:54:48;;;;;;;3.83;3.63;;;17.70;99.90;;;;;;5015454;28;20880;-49
2021/06/03 03:57:16;;;;;;;4.10;3.77;;;17.80;99.90;;;;;;5018930;28;20759;-52
2021/06/03 03:59:42;;;;;;;4.70;4.30;;;17.80;99.90;;;;;;5019894;28;20464;-45
2021/06/03 04:02:09;;;;;;;4.37;3.97;;;17.80;99.90;;;;;;5019602;28;20470;-47
2021/06/03 04:04:35;;;;;;;4.70;4.30;;;17.90;99.90;;;;;;5010971;28;20471;-46
2021/06/03 04:07:05;;;;;;;4.23;3.93;;;17.90;99.90;;;;;;5019668;28;20885;-46
2021/06/03 04:09:31;;;;;;;4.50;4.20;;;17.90;99.90;;;;;;5013906;28;20472;-45
2021/06/03 04:11:58;;;;;;;5.07;4.77;;;17.90;99.90;;;;;;5020462;28;20468;-46
2021/06/03 04:14:27;;;;;;;4.90;4.40;;;18.00;99.90;;;;;;5019915;28;20471;-45
2021/06/03 04:16:54;;;;;;;5.87;4.37;;;18.00;99.90;;;;;;5014128;28;20471;-46
2021/06/03 04:19:21;;;;;;;4.60;4.20;;;18.10;99.90;;;;;;5020539;28;20860;-48
2021/06/03 04:21:47;;;;;;;5.43;5.03;;;18.10;99.90;;;;;;5020058;28;20791;-47
2021/06/03 04:24:14;;;;;;;4.70;3.80;;;18.10;99.90;;;;;;5014010;28;20464;-45
2021/06/03 04:26:40;;;;;;;4.30;3.90;;;18.20;99.90;;;;;;5014012;28;20468;-45
2021/06/03 04:29:07;;;;;;;4.23;3.93;;;18.30;99.90;;;;;;5020089;28;20471;-45
2021/06/03 04:31:35;;;;;;;3.90;3.60;;;18.40;99.90;;;;;;5019979;28;20566;-48
2021/06/03 04:34:02;;;;;;;5.97;4.03;;;18.40;99.90;;;;;;5020080;28;20467;-45
2021/06/03 04:36:29;;;;;;;4.63;4.33;;;18.60;99.90;;;;;;5009853;28;20496;-50
2021/06/03 04:38:55;;;;;;;4.83;4.10;;;18.70;99.90;;;;;;4993439;28;20473;-49
2021/06/03 04:41:22;;;;;;;3.90;3.57;;;18.80;99.90;;;;;;5000437;28;20501;-50
2021/06/03 04:43:49;;;;;;;4.33;4.03;;;18.90;99.90;;;;;;5000101;28;20556;-52
2021/06/03 04:46:15;;;;;;;5.03;4.53;;;19.00;99.90;;;;;;4999966;28;20559;-52
2021/06/03 04:48:44;;;;;;;4.33;3.83;;;19.00;99.90;;;;;;4999920;28;20770;-46
2021/06/03 04:51:10;;;;;;;4.73;4.43;;;19.20;99.90;;;;;;5000243;28;20944;-45
2021/06/03 04:53:37;;;;;;;5.13;3.90;;;19.20;99.90;;;;;;5000289;28;20495;-46
2021/06/03 04:56:04;;;;;;;4.80;4.27;;;19.30;99.90;;;;;;5000082;28;20472;-46
2021/06/03 04:58:30;;;;;;;4.10;3.80;;;19.30;99.90;;;;;;4998964;28;20526;-46
2021/06/03 05:00:57;;;;;;;4.93;4.07;;;19.30;99.90;;;;;;4999631;28;20496;-46
2021/06/03 05:03:24;;;;;;;4.23;3.87;;;19.40;99.90;;;;;;4993378;28;20572;-45
2021/06/03 05:05:52;;;;;;;4.73;3.30;;;19.50;99.90;;;;;;4996646;28;20527;-48
2021/06/03 05:08:19;;;;;;;3.40;3.20;;;19.50;99.90;;;;;;4998900;28;20473;-49
2021/06/03 05:10:46;;;;;;;3.60;3.30;;;19.50;99.90;;;;;;4998906;28;20750;-48
2021/06/03 05:13:13;;;;;;;4.63;4.30;;;19.50;99.90;;;;;;4999808;28;20551;-47
2021/06/03 05:15:39;;;;;;;3.90;3.47;;;19.60;99.90;;;;;;4999193;28;20753;-46
2021/06/03 05:18:12;;;;;;;4.20;3.80;;;19.60;99.90;;;;;;4999448;28;20465;-47
2021/06/03 05:20:39;;;;;;;4.33;3.93;;;19.70;99.90;;;;;;4999648;28;20501;-46
2021/06/03 05:23:07;;;;;;;4.90;4.50;;;19.80;99.90;;;;;;4999339;28;20476;-46
2021/06/03 05:25:35;;;;;;;4.60;4.30;;;19.70;99.90;;;;;;4999110;28;20894;-49
2021/06/03 05:28:02;;;;;;;4.53;3.77;;;20.00;99.90;;;;;;4998987;28;20469;-52
2021/06/03 05:30:30;;;;;;;4.30;4.00;;;20.10;99.90;;;;;;4998411;28;20849;-55
2021/06/03 05:32:57;;;;;;;4.33;4.03;;;20.20;99.90;;;;;;4999401;28;20548;-53
2021/06/03 05:35:24;;;;;;;3.97;3.60;;;20.50;99.90;;;;;;4999198;28;20495;-51
2021/06/03 05:37:53;;;;;;;8.27;4.03;;;20.70;99.90;;;;;;4998493;28;20472;-50
2021/06/03 05:40:26;;;;;;;4.30;4.00;;;20.90;99.90;;;;;;4998880;28;20497;-47
2021/06/03 05:42:54;;;;;;;4.30;4.00;;;21.20;99.90;;;;;;4999452;28;20902;-48
2021/06/03 05:45:21;;;;;;;4.23;3.70;;;21.60;99.90;;;;;;4999308;28;20495;-50
2021/06/03 05:47:51;;;;;;;5.20;4.20;;;22.00;99.90;;;;;;4999254;28;20472;-49
2021/06/03 05:50:20;;;;;;;4.13;3.87;;;22.40;98.70;;;;;;4999073;28;20507;-47
2021/06/03 05:52:47;;;;;;;4.10;3.80;;;22.60;98.70;;;;;;4999153;28;20511;-48
2021/06/03 05:55:15;;;;;;;4.23;3.50;;;22.80;98.40;;;;;;4998669;28;20917;-46
2021/06/03 05:57:44;;;;;;;4.07;3.80;;;22.70;97.50;;;;;;4998299;28;20473;-49
2021/06/03 06:00:13;;;;;;;4.33;4.00;;;22.70;98.70;;;;;;4998272;28;20968;-47
2021/06/03 06:02:47;;;;;;;4.60;4.30;;;22.80;98.10;;;;;;4994439;28;20608;-49
2021/06/03 06:07:59;;;;;;;4.20;3.97;;;22.60;99.30;;;;;;4996235;28;20439;-46
2021/06/03 06:10:25;;;;;;;4.00;3.73;;;22.40;99.90;;;;;;4998338;28;20464;-46
2021/06/03 06:12:53;;;;;;;4.20;3.87;;;22.30;99.90;;;;;;4997906;28;20457;-46
2021/06/03 06:15:20;;;;;;;4.83;4.40;;;22.30;99.90;;;;;;4998595;28;20464;-46
2021/06/03 06:17:47;;;;;;;7.10;4.20;;;22.30;99.90;;;;;;4998620;28;20464;-48
2021/06/03 06:20:14;;;;;;;4.77;4.47;;;22.40;99.90;;;;;;4997506;28;20945;-46
2021/06/03 06:22:42;;;;;;;5.17;4.77;;;22.40;99.90;;;;;;4995066;28;20464;-46
2021/06/03 06:25:10;;;;;;;4.97;4.47;;;22.50;99.90;;;;;;4992247;28;20473;-46
2021/06/03 06:27:37;;;;;;;4.87;4.37;;;22.60;99.90;;;;;;4990256;28;20511;-47
2021/06/03 06:30:08;;;;;;;4.50;4.20;;;22.80;99.90;;;;;;4995404;28;20457;-51
2021/06/03 06:32:37;;;;;;;5.00;4.60;;;22.80;99.90;;;;;;4996631;28;20469;-55
2021/06/03 06:35:05;;;;;;;4.73;4.33;;;23.10;99.90;;;;;;4998151;28;20469;-54
2021/06/03 06:37:31;;;;;;;4.27;3.97;;;23.00;99.90;;;;;;4997388;28;20564;-53
2021/06/03 06:39:58;;;;;;;5.20;4.80;;;22.70;99.90;;;;;;4997261;28;20472;-56
2021/06/03 06:42:26;;;;;;;5.07;4.67;;;22.70;99.90;;;;;;4997523;28;20479;-48
2021/06/03 06:44:53;;;;;;;5.10;4.27;;;22.70;99.90;;;;;;4997116;28;20481;-46
2021/06/03 06:47:21;;;;;;;5.30;4.90;;;22.70;99.90;;;;;;4997644;28;20469;-56
2021/06/03 06:49:48;;;;;;;5.27;4.87;;;22.50;99.90;;;;;;4997844;28;20483;-46
2021/06/03 06:52:15;;;;;;;6.90;5.73;;;22.60;99.90;;;;;;4997938;28;20830;-46
2021/06/03 06:54:42;;;;;;;5.80;5.30;;;22.60;99.90;;;;;;4998025;28;20469;-46
2021/06/03 06:57:09;;;;;;;6.93;5.73;;;22.50;99.90;;;;;;4997796;28;20476;-46
2021/06/03 06:59:39;;;;;;;4.90;4.50;;;22.50;99.90;;;;;;5000288;28;20476;-47
2021/06/03 07:02:07;;;;;;;4.70;4.40;;;22.40;99.90;;;;;;5000744;28;20595;-46
2021/06/03 07:04:36;;;;;;;6.00;5.40;;;22.40;99.90;;;;;;4990714;28;20476;-51
2021/06/03 07:07:03;;;;;;;5.00;4.70;;;22.40;99.90;;;;;;4998018;28;20464;-46
2021/06/03 07:09:29;;;;;;;5.90;5.30;;;22.30;99.90;;;;;;4998032;28;20472;-48
2021/06/03 07:11:59;;;;;;;5.73;5.10;;;22.30;99.90;;;;;;5000057;28;20461;-46
2021/06/03 07:14:25;;;;;;;5.60;5.10;;;22.30;99.90;;;;;;4997428;28;20468;-52
2021/06/03 07:16:52;;;;;;;6.00;5.50;;;22.30;99.90;;;;;;4997812;28;20909;-47
2021/06/03 07:19:18;;;;;;;6.30;4.97;;;22.40;99.90;;;;;;4997645;28;20468;-50
2021/06/03 07:21:49;;;;;;;7.50;5.17;;;22.50;99.90;;;;;;4997672;28;20492;-54
2021/06/03 07:24:16;;;;;;;5.37;4.97;;;23.30;99.90;;;;;;4996830;28;20547;-52
2021/06/03 07:26:42;;;;;;;5.63;5.13;;;24.20;99.90;;;;;;4998296;28;20469;-52
2021/06/03 07:29:09;;;;;;;5.03;4.73;;;25.10;98.60;;;;;;4997024;28;20770;-54
2021/06/03 07:31:37;;;;;;;5.83;5.33;;;25.70;95.10;;;;;;5000776;28;20476;-53
2021/06/03 07:34:05;;;;;;;5.20;4.70;;;25.80;93.70;;;;;;5001860;28;20473;-51
2021/06/03 07:36:31;;;;;;;4.80;4.40;;;26.20;92.20;;;;;;5012208;28;20492;-47
2021/06/03 07:38:59;;;;;;;5.03;4.63;;;26.30;92.00;;;;;;5020855;28;20514;-46
2021/06/03 07:41:26;;;;;;;5.80;4.40;;;26.60;89.60;;;;;;5021380;28;20496;-48
2021/06/03 07:43:53;;;;;;;5.07;4.67;;;26.90;88.00;;;;;;5020654;28;20459;-48
2021/06/03 07:46:20;;;;;;;4.97;4.53;;;26.70;86.70;;;;;;5021550;28;20468;-51
2021/06/03 07:48:47;;;;;;;5.83;5.40;;;26.30;89.80;;;;;;5020736;28;20522;-52
2021/06/03 07:51:13;;;;;;;5.57;5.07;;;25.90;91.70;;;;;;5021021;28;20467;-47
2021/06/03 07:53:41;;;;;;;6.77;6.27;;;25.80;93.00;;;;;;5021445;28;20475;-49
2021/06/03 07:56:10;;;;;;;6.40;5.90;;;25.50;93.90;;;;;;5020484;28;20475;-50
2021/06/03 07:58:37;;;;;;;5.87;5.47;;;25.40;95.00;;;;;;5020352;28;20522;-50
2021/06/03 08:01:04;;;;;;;7.50;5.50;;;25.30;96.50;;;;;;5023397;28;20574;-51
2021/06/03 08:03:31;;;;;;;23.00;7.77;;;25.20;97.50;;;;;;5015347;28;20464;-46
2021/06/03 08:05:57;;;;;;;6.13;5.53;;;25.00;99.70;;;;;;5018254;28;20467;-53
2021/06/03 08:08:24;;;;;;;7.93;6.57;;;25.20;99.20;;;;;;5020125;28;20475;-55
2021/06/03 08:10:53;;;;;;;6.43;5.77;;;25.30;98.50;;;;;;5019933;28;20795;-53
2021/06/03 08:13:21;;;;;;;6.80;6.20;;;25.20;99.00;;;;;;5020200;28;20456;-53
2021/06/03 08:15:48;;;;;;;5.83;5.30;;;25.00;99.70;;;;;;5021075;28;20468;-53
2021/06/03 08:18:16;;;;;;;6.37;5.93;;;25.00;99.90;;;;;;5020642;28;20472;-53
2021/06/03 08:20:47;;;;;;;7.67;6.13;;;25.20;99.90;;;;;;5017202;28;20590;-47
2021/06/03 08:23:16;;;;;;;5.90;5.47;;;25.20;98.80;;;;;;5020099;28;20472;-50
2021/06/03 08:25:43;;;;;;;6.37;5.70;;;24.90;98.80;;;;;;5019747;28;20907;-49
2021/06/03 08:28:15;;;;;;;5.47;5.07;;;24.80;98.20;;;;;;5018785;28;20774;-48
2021/06/03 08:30:45;;;;;;;6.10;5.60;;;24.50;99.90;;;;;;5020241;28;20468;-49
2021/06/03 08:33:13;;;;;;;5.63;5.13;;;24.30;99.90;;;;;;5020619;28;20770;-47
2021/06/03 08:35:40;;;;;;;5.27;4.87;;;24.30;99.90;;;;;;5023923;28;20494;-47
2021/06/03 08:38:11;;;;;;;6.33;5.73;;;24.20;99.90;;;;;;5026404;28;20471;-48
2021/06/03 08:40:40;;;;;;;6.80;6.27;;;24.20;99.90;;;;;;5020114;28;20813;-49
2021/06/03 08:43:08;;;;;;;6.10;5.50;;;23.90;99.90;;;;;;5023303;28;20525;-48
2021/06/03 08:45:37;;;;;;;5.87;5.40;;;23.50;99.90;;;;;;5020546;28;20526;-46
2021/06/03 08:48:08;;;;;;;5.10;4.70;;;23.30;99.90;;;;;;5019067;28;20526;-52
2021/06/03 08:50:37;;;;;;;7.87;5.07;;;23.20;99.90;;;;;;5019224;28;20905;-52
2021/06/03 08:53:05;;;;;;;6.10;5.50;;;23.00;99.90;;;;;;5021820;28;20467;-50
2021/06/03 08:58:21;;;;;;;4.77;4.47;;;22.80;99.90;;;;;;5018856;28;20479;-46
2021/06/03 09:00:49;;;;;;;5.50;5.10;;;22.50;99.90;;;;;;5018069;28;20492;-47
2021/06/03 09:03:19;;;;;;;5.60;5.20;;;22.40;99.90;;;;;;5013069;28;20483;-46
2021/06/03 09:05:48;;;;;;;5.10;4.70;;;22.40;99.90;;;;;;5016557;28;20473;-46
2021/06/03 09:08:21;;;;;;;5.33;4.83;;;22.50;99.90;;;;;;5014074;28;21081;-48
2021/06/03 09:10:51;;;;;;;6.17;5.10;;;22.50;99.90;;;;;;5018508;28;20464;-48
2021/06/03 09:13:19;;;;;;;5.73;5.23;;;22.50;99.90;;;;;;5018952;28;20460;-49
2021/06/03 09:15:48;;;;;;;5.60;5.00;;;22.40;99.90;;;;;;5017638;28;20471;-55
2021/06/03 09:18:17;;;;;;;5.93;5.30;;;22.40;99.90;;;;;;5018624;28;20475;-52
2021/06/03 09:20:45;;;;;;;5.17;4.67;;;22.50;99.90;;;;;;5017862;28;20868;-53
2021/06/03 09:23:28;;;;;;;8.50;4.93;;;22.70;99.90;;;;;;5018526;28;20467;-53
2021/06/03 09:25:56;;;;;;;4.90;4.50;;;22.90;99.90;;;;;;5018926;28;20468;-56
2021/06/03 09:28:25;;;;;;;5.30;4.70;;;23.10;99.90;;;;;;5018263;28;20798;-50
2021/06/03 09:30:57;;;;;;;4.60;4.30;;;23.40;99.90;;;;;;5018270;28;20443;-53
2021/06/03 09:33:45;;;;;;;7.17;4.90;;;24.00;99.90;;;;;;5018457;28;20468;-56
2021/06/03 10:14:11;;;;;;;7.23;6.53;;;25.50;99.90;;;;;;4477117;23;20496;-48
2021/06/03 10:16:40;;;;;;;6.77;6.17;;;25.10;99.90;;;;;;5017835;28;20464;-45
2021/06/03 10:19:23;;;;;;;7.30;6.70;;;24.90;99.90;;;;;;5013819;28;20464;-52
2021/06/03 10:22:15;;;;;;;6.83;6.23;;;25.20;99.90;;;;;;5015856;28;20496;-51
2021/06/03 10:25:10;;;;;;;6.07;5.60;;;25.30;99.90;;;;;;5025679;28;20533;-47
2021/06/03 10:27:39;;;;;;;6.90;6.40;;;25.80;99.90;;;;;;5014542;28;20484;-51
2021/06/03 10:30:12;;;;;;;5.47;4.97;;;26.40;99.40;;;;;;5017654;28;20472;-52
2021/06/03 10:32:39;;;;;;;6.93;6.10;;;26.70;98.30;;;;;;5017760;28;20525;-48
2021/06/03 10:35:09;;;;;;;7.87;7.27;;;26.70;97.60;;;;;;5017487;28;20475;-45
2021/06/03 10:37:40;;;;;;;6.83;6.23;;;26.50;97.10;;;;;;5017685;28;20530;-49
2021/06/03 10:40:09;;;;;;;6.40;5.90;;;26.50;98.20;;;;;;5021760;28;20474;-53
2021/06/03 11:55:11;;;;;;;4.30;4.00;;;24.50;99.90;;;;;;2975762;23;20729;-46
2021/06/03 11:57:38;;;;;;;5.60;5.10;;;24.60;99.90;;;;;;4996818;28;20837;-46
2021/06/03 12:00:11;;;;;;;4.93;4.60;;;24.80;99.90;;;;;;4997274;28;20464;-45
2021/06/03 12:02:39;;;;;;;5.73;5.00;;;24.80;99.90;;;;;;4992869;28;20567;-48
2021/06/03 12:05:17;;;;;;;5.47;4.97;;;24.40;99.90;;;;;;4988040;28;20972;-45
2021/06/03 12:07:45;;;;;;;4.57;4.27;;;24.50;99.90;;;;;;4996732;28;20464;-45
2021/06/03 12:10:15;;;;;;;4.40;4.10;;;24.30;99.90;;;;;;4996135;28;20468;-46
2021/06/03 12:12:44;;;;;;;4.13;3.80;;;24.30;99.90;;;;;;4997050;28;20465;-46
2021/06/03 12:15:19;;;;;;;4.37;4.07;;;24.30;99.90;;;;;;4997053;28;20557;-50
2021/06/03 12:17:46;;;;;;;4.93;4.50;;;24.60;99.90;;;;;;4998942;28;20525;-49
2021/06/03 12:20:19;;;;;;;4.57;4.20;;;25.10;99.90;;;;;;5000512;28;20897;-45
2021/06/03 12:22:46;;;;;;;5.17;4.77;;;25.60;99.40;;;;;;5000044;28;20465;-50
2021/06/03 12:25:14;;;;;;;5.30;4.80;;;25.90;98.80;;;;;;5000679;28;20912;-46
2021/06/03 12:27:43;;;;;;;4.50;4.10;;;26.30;97.00;;;;;;5000797;28;20877;-45
2021/06/03 12:30:15;;;;;;;5.40;4.90;;;27.10;93.60;;;;;;4999621;28;20496;-43
2021/06/03 12:32:43;;;;;;;6.63;3.93;;;27.80;90.20;;;;;;5000670;28;20526;-45
2021/06/03 12:35:10;;;;;;;5.60;5.20;;;28.50;88.50;;;;;;5000293;28;20530;-52
2021/06/03 12:37:41;;;;;;;4.43;4.10;;;29.00;79.50;;;;;;5000227;28;20475;-54
2021/06/03 12:40:22;;;;;;;5.33;4.80;;;28.90;75.60;;;;;;5000343;28;20527;-51
2021/06/03 13:23:04;;;;;;;5.93;5.43;;;26.40;90.70;;;;;;3637637;23;20479;-47
2021/06/03 13:25:32;;;;;;;4.87;4.37;;;26.40;90.20;;;;;;5019668;28;20468;-52
2021/06/03 13:28:00;;;;;;;4.30;4.00;;;26.60;88.40;;;;;;5018410;28;20471;-53
2021/06/03 13:30:29;;;;;;;4.90;4.40;;;27.50;89.60;;;;;;5010859;28;20468;-54
2021/06/03 13:33:07;;;;;;;4.47;4.17;;;28.50;82.00;;;;;;4999707;28;20469;-54
2021/06/03 13:35:33;;;;;;;5.37;5.03;;;29.00;77.50;;;;;;4993561;28;20766;-55
2021/06/03 13:38:03;;;;;;;4.73;4.40;;;29.00;76.60;;;;;;4993196;28;20460;-55
2021/06/03 13:40:33;;;;;;;4.70;4.40;;;28.80;74.00;;;;;;4993766;28;20499;-46
2021/06/03 13:43:04;;;;;;;4.97;4.40;;;28.30;76.10;;;;;;4999611;28;20473;-51
2021/06/03 13:45:37;;;;;;;4.83;4.43;;;27.60;78.40;;;;;;4999334;28;20529;-46
2021/06/03 13:48:04;;;;;;;4.43;4.07;;;27.00;80.80;;;;;;4999964;28;20489;-48
2021/06/03 13:50:38;;;;;;;4.83;4.53;;;26.30;85.10;;;;;;4999434;28;20897;-47
2021/06/03 13:53:25;;;;;;;6.27;5.77;;;25.90;89.60;;;;;;4999355;28;20476;-47
2021/06/03 13:55:55;;;;;;;5.10;4.73;;;26.30;91.40;;;;;;4999420;28;20464;-53
2021/06/03 13:58:32;;;;;;;5.00;4.50;;;26.80;90.30;;;;;;5015539;28;20483;-52
2021/06/03 14:01:15;;;;;;;5.30;4.87;;;27.10;87.70;;;;;;5017736;28;20495;-44
2021/06/03 14:03:44;;;;;;;4.77;4.47;;;27.40;85.70;;;;;;4985221;28;20473;-53
2021/06/03 14:06:14;;;;;;;5.07;4.60;;;27.50;84.10;;;;;;4997706;28;20468;-52
2021/06/03 14:08:44;;;;;;;5.53;5.03;;;27.50;82.80;;;;;;4998627;28;20468;-51
2021/06/03 14:11:34;;;;;;;5.13;4.73;;;27.20;84.40;;;;;;4999093;28;20472;-44
2021/06/03 14:14:05;;;;;;;4.20;3.90;;;28.10;85.10;;;;;;4998586;28;20852;-47
2021/06/03 14:16:38;;;;;;;4.10;3.80;;;28.80;80.40;;;;;;4998437;28;20568;-49
2021/06/03 14:19:06;;;;;;;4.20;3.93;;;29.10;76.50;;;;;;4999035;28;20475;-52
2021/06/03 14:21:34;;;;;;;4.70;4.30;;;28.50;77.10;;;;;;4998765;28;20488;-49
2021/06/03 14:24:03;;;;;;;5.23;4.73;;;28.10;79.60;;;;;;4998267;28;20496;-48
2021/06/03 14:26:38;;;;;;;5.73;5.33;;;27.30;82.80;;;;;;4999129;28;20469;-45
2021/06/03 14:29:07;;;;;;;5.17;4.87;;;26.80;88.80;;;;;;4998479;28;20496;-47
2021/06/03 14:31:47;;;;;;;5.00;4.53;;;26.60;90.30;;;;;;4999036;28;20470;-48
2021/06/03 14:34:35;;;;;;;5.97;5.43;;;26.50;91.70;;;;;;4998626;28;20468;-48
2021/06/03 14:37:04;;;;;;;4.77;4.47;;;26.30;93.40;;;;;;4999081;28;20464;-48
2021/06/03 14:39:57;;;;;;;4.70;4.40;;;26.00;94.90;;;;;;4998710;28;20467;-45
2021/06/03 14:42:27;;;;;;;4.80;4.50;;;25.70;96.90;;;;;;4999541;28;20562;-46
2021/06/03 14:44:58;;;;;;;5.37;4.97;;;25.60;98.20;;;;;;4997857;28;20480;-45
2021/06/03 15:27:19;;;;;;;9.20;8.50;;;26.10;92.70;;;;;;5004723;23;20505;-50
2021/06/03 15:29:46;;;;;;;9.70;8.90;;;26.00;93.50;;;;;;4976225;28;20878;-51
2021/06/03 15:32:14;;;;;;;9.10;8.40;;;26.00;91.00;;;;;;4980495;28;20463;-52
2021/06/03 15:34:41;;;;;;;4.40;4.10;;;26.00;87.00;;;;;;4974771;28;20744;-45
2021/06/03 15:37:08;;;;;;;7.70;7.10;;;25.90;83.90;;;;;;4981357;28;20475;-46
2021/06/03 15:39:35;;;;;;;8.37;7.80;;;25.70;85.10;;;;;;4979783;28;20465;-52
2021/06/03 15:42:03;;;;;;;14.20;13.00;;;25.90;84.40;;;;;;4976614;28;20501;-51
2021/06/03 16:21:27;;;;;;;5.03;4.63;;;26.10;95.20;;;;;;5244315;23;20493;-48
2021/06/03 16:23:54;;;;;;;5.10;4.60;;;26.00;96.20;;;;;;5000446;28;20487;-45
2021/06/03 16:26:23;;;;;;;5.40;4.83;;;26.00;95.70;;;;;;5220556;23;20461;-48
2021/06/03 16:28:50;;;;;;;5.70;5.30;;;25.90;96.10;;;;;;4982426;28;20482;-46
2021/06/03 16:31:19;;;;;;;5.90;5.40;;;25.80;97.70;;;;;;4980734;28;20899;-45
2021/06/03 16:33:45;;;;;;;5.40;5.00;;;25.70;98.80;;;;;;4980436;28;20474;-45
2021/06/03 16:36:12;;;;;;;4.77;4.47;;;25.50;98.90;;;;;;4980713;28;20469;-46
2021/06/03 16:38:40;;;;;;;5.60;5.30;;;25.30;99.60;;;;;;4979682;28;20462;-48
2021/06/03 16:41:18;;;;;;;5.70;5.30;;;25.40;99.90;;;;;;4980670;28;20926;-45
2021/06/03 16:43:45;;;;;;;5.20;4.87;;;25.50;99.90;;;;;;4979782;28;20477;-45
2021/06/03 16:46:14;;;;;;;5.87;5.50;;;25.60;99.90;;;;;;4980144;28;20461;-51
2021/06/03 16:48:41;;;;;;;5.70;5.10;;;25.80;99.90;;;;;;4979195;28;20473;-49
2021/06/03 16:51:07;;;;;;;5.20;4.80;;;25.90;99.40;;;;;;4979334;28;20524;-46
2021/06/03 16:53:35;;;;;;;5.67;5.17;;;26.10;99.70;;;;;;4981077;28;20561;-49
2021/06/03 16:56:04;;;;;;;6.03;5.50;;;26.00;99.90;;;;;;4979702;28;20887;-45
2021/06/03 16:58:32;;;;;;;5.10;4.70;;;26.00;99.90;;;;;;4975788;28;20548;-48
2021/06/03 17:01:00;;;;;;;5.93;5.43;;;25.90;99.90;;;;;;4979155;28;20469;-46
2021/06/03 17:03:27;;;;;;;5.10;4.60;;;25.80;99.90;;;;;;4972112;28;20488;-45
2021/06/03 17:05:55;;;;;;;5.23;4.83;;;25.70;99.90;;;;;;4976545;28;20937;-50
2021/06/03 17:08:22;;;;;;;6.90;5.87;;;25.60;99.90;;;;;;4978625;28;20469;-51
2021/06/03 17:10:53;;;;;;;6.10;5.60;;;25.40;99.90;;;;;;4978288;28;20462;-55
2021/06/03 17:13:24;;;;;;;6.70;6.20;;;25.30;99.90;;;;;;4978910;28;20552;-51
2021/06/03 17:15:52;;;;;;;7.10;6.60;;;25.20;99.90;;;;;;4976247;28;20466;-52
2021/06/03 17:18:19;;;;;;;6.87;6.30;;;25.00;99.90;;;;;;4978028;28;20926;-48
2021/06/03 17:20:50;;;;;;;6.60;6.03;;;24.90;99.90;;;;;;4977441;28;20466;-47
2021/06/03 17:23:17;;;;;;;7.00;6.23;;;24.90;99.90;;;;;;4977594;28;20473;-45